Time;durP1;ratioP1;P1;durP2;ratioP2;P2;SDS_P1;SDS_P2;PMS_P1;PMS_P2;Temp;Humidity;BMP_temperature;BMP_pressure;BME280_temperature;BME280_humidity;BME280_pressure;Samples;Min_cycle;Max_cycle;Signal;HPM_P1;HPM_P2
2021/06/24 00:00:17;;;;;;;13.70;4.95;;;;;;;18.83;58.45;102052.66;6237236;28;20232;-54
2021/06/24 00:03:39;;;;;;;5.40;3.22;;;;;;;18.88;58.46;102056.03;6233896;28;20862;-54
2021/06/24 00:07:00;;;;;;;5.72;3.85;;;;;;;18.81;58.46;102054.47;6228640;28;20240;-51
2021/06/24 00:10:21;;;;;;;4.97;3.80;;;;;;;18.74;58.80;102068.66;6232832;28;20632;-54
2021/06/24 00:13:42;;;;;;;6.55;4.35;;;;;;;18.96;57.95;102053.19;6233609;28;20232;-54
2021/06/24 00:17:05;;;;;;;5.75;5.22;;;;;;;18.82;58.58;102035.06;6235024;28;20232;-51
2021/06/24 00:20:26;;;;;;;5.95;3.60;;;;;;;18.53;59.04;102023.41;6232779;28;20236;-53
2021/06/24 00:23:47;;;;;;;4.05;2.92;;;;;;;18.45;59.16;102047.31;6227424;28;20524;-52
2021/06/24 00:27:08;;;;;;;6.95;3.22;;;;;;;18.41;59.58;102045.66;6239207;28;20263;-54
2021/06/24 00:30:29;;;;;;;6.00;3.72;;;;;;;18.47;59.38;102042.00;6229642;28;20589;-53
2021/06/24 00:33:52;;;;;;;6.90;4.72;;;;;;;18.45;59.35;102044.66;6231073;28;20624;-55
2021/06/24 00:37:12;;;;;;;7.32;4.80;;;;;;;18.42;59.42;102039.47;6236196;28;20263;-54
2021/06/24 00:40:36;;;;;;;6.10;4.15;;;;;;;18.45;59.18;102043.81;6235963;28;20975;-53
2021/06/24 00:43:57;;;;;;;5.05;3.55;;;;;;;18.54;59.18;102035.69;6234015;28;20626;-49
2021/06/24 00:47:19;;;;;;;8.55;4.07;;;;;;;18.61;58.87;102026.75;6230769;28;20233;-51
2021/06/24 00:50:45;;;;;;;7.38;4.38;;;;;;;18.49;59.48;102053.38;6236570;28;20243;-53
2021/06/24 00:54:06;;;;;;;5.80;3.28;;;;;;;18.31;59.83;102062.59;6235317;28;20228;-51
2021/06/24 00:57:29;;;;;;;12.38;6.30;;;;;;;18.51;59.48;102075.31;6244030;28;20772;-56
2021/06/24 01:00:52;;;;;;;5.93;3.50;;;;;;;18.44;59.38;102077.25;6232293;28;20232;-51
2021/06/24 01:04:19;;;;;;;5.28;3.60;;;;;;;18.45;59.32;102080.72;6227374;28;20675;-50
2021/06/24 01:07:42;;;;;;;6.28;4.30;;;;;;;18.49;59.25;102071.84;6243715;28;20232;-54
2021/06/24 01:11:19;;;;;;;7.03;3.85;;;;;;;18.53;58.62;102080.56;6225577;28;20661;-51
2021/06/24 01:14:40;;;;;;;4.65;3.90;;;;;;;18.58;58.70;102074.28;6234100;28;20639;-50
2021/06/24 01:18:02;;;;;;;5.38;4.18;;;;;;;18.32;59.84;102066.06;6247592;28;20232;-56
2021/06/24 01:21:23;;;;;;;5.10;4.25;;;;;;;18.52;59.03;102058.59;6230407;28;20235;-53
2021/06/24 01:24:46;;;;;;;5.88;3.97;;;;;;;18.60;58.99;102058.44;6224531;28;20649;-48
2021/06/24 01:28:10;;;;;;;5.10;3.55;;;;;;;18.21;60.12;102068.97;6226669;28;20303;-54
2021/06/24 01:31:33;;;;;;;3.83;2.95;;;;;;;17.98;60.57;102057.09;6227164;28;20224;-55
2021/06/24 01:34:55;;;;;;;4.95;3.40;;;;;;;18.23;59.97;102060.09;6239965;28;20240;-53
2021/06/24 01:38:16;;;;;;;6.78;3.08;;;;;;;18.13;60.58;102047.16;6229954;28;20248;-53
2021/06/24 01:42:00;;;;;;;5.03;3.60;;;;;;;18.22;60.37;102037.28;6239467;28;20236;-55
2021/06/24 01:45:47;;;;;;;3.63;3.33;;;;;;;18.06;60.74;102038.50;6234445;28;20273;-56
2021/06/24 01:49:08;;;;;;;7.82;3.70;;;;;;;18.23;60.29;102024.97;6223751;28;21024;-53
2021/06/24 01:52:29;;;;;;;4.65;3.63;;;;;;;18.32;59.92;102034.44;6228478;28;20240;-54
2021/06/24 01:55:52;;;;;;;4.72;3.50;;;;;;;18.15;60.25;102032.19;6221794;28;20227;-51
2021/06/24 02:03:03;;;;;;;7.72;4.15;;;;;;;18.13;60.35;102028.72;6232778;28;20356;-51
2021/06/24 02:06:24;;;;;;;6.63;4.07;;;;;;;18.20;60.31;102028.53;6235839;28;20258;-55
2021/06/24 02:09:53;;;;;;;9.90;5.22;;;;;;;18.23;60.12;102031.09;6246156;28;20919;-54
2021/06/24 02:13:15;;;;;;;6.20;4.30;;;;;;;18.21;60.14;102027.63;6234135;28;20244;-55
2021/06/24 02:16:38;;;;;;;8.38;5.32;;;;;;;18.19;60.50;102018.91;6230105;28;20319;-53
2021/06/24 02:20:00;;;;;;;5.75;4.20;;;;;;;17.97;60.49;102001.78;6230626;28;20232;-52
2021/06/24 02:23:43;;;;;;;8.73;5.63;;;;;;;18.11;60.59;102007.66;6244070;28;20236;-56
2021/06/24 02:27:19;;;;;;;5.70;3.97;;;;;;;18.09;60.59;101989.22;6233214;28;20229;-51
2021/06/24 02:31:07;;;;;;;8.38;4.65;;;;;;;18.05;61.05;101992.84;6216042;28;20464;-50
2021/06/24 02:34:33;;;;;;;11.18;5.20;;;;;;;17.98;60.86;101991.22;6231440;28;20228;-56
2021/06/24 02:37:59;;;;;;;4.93;4.13;;;;;;;18.05;60.91;101994.63;6257772;28;20259;-52
2021/06/24 02:41:35;;;;;;;7.50;4.28;;;;;;;18.01;60.62;101992.91;6236569;28;20228;-53
2021/06/24 02:44:58;;;;;;;5.50;4.15;;;;;;;17.98;60.79;101987.72;6233950;28;20220;-55
2021/06/24 02:48:20;;;;;;;5.85;4.07;;;;;;;17.90;60.88;101991.38;6232968;28;20833;-53
2021/06/24 02:51:46;;;;;;;7.90;4.45;;;;;;;17.90;60.71;102009.84;6237942;28;20224;-50
2021/06/24 02:55:10;;;;;;;3.92;3.58;;;;;;;17.79;61.07;102003.00;6220031;28;20669;-52
2021/06/24 02:58:41;;;;;;;5.57;3.97;;;;;;;17.74;61.48;102012.78;6249586;28;20240;-56
2021/06/24 03:02:17;;;;;;;7.93;4.38;;;;;;;17.78;61.09;102012.69;6237052;28;20243;-53
2021/06/24 03:05:38;;;;;;;6.73;4.43;;;;;;;18.10;60.48;102013.81;6257201;28;20312;-55
2021/06/24 03:09:02;;;;;;;5.82;5.03;;;;;;;18.07;60.07;102008.63;6252064;28;20315;-56
2021/06/24 03:12:24;;;;;;;15.95;8.73;;;;;;;17.98;60.73;102000.91;6251679;28;20228;-54
2021/06/24 03:15:46;;;;;;;9.90;8.95;;;;;;;18.10;60.53;101998.00;6251922;28;20692;-52
2021/06/24 03:19:08;;;;;;;7.07;5.22;;;;;;;18.00;60.72;101996.47;6227055;28;20501;-53
2021/06/24 03:22:31;;;;;;;8.63;6.27;;;;;;;18.00;60.96;101992.06;6250826;28;20232;-55
2021/06/24 03:25:55;;;;;;;9.13;5.47;;;;;;;17.93;61.04;101982.53;6251939;28;20599;-50
2021/06/24 03:29:17;;;;;;;8.73;4.70;;;;;;;17.74;61.67;101971.50;6244696;28;20327;-55
2021/06/24 03:32:43;;;;;;;8.83;5.00;;;;;;;17.66;61.77;101976.03;6248122;28;21156;-53
2021/06/24 03:36:05;;;;;;;7.63;4.93;;;;;;;17.64;61.78;101977.84;6250770;28;20315;-53
2021/06/24 03:39:26;;;;;;;11.90;5.27;;;;;;;17.65;61.48;101980.44;6229133;28;21158;-55
2021/06/24 03:42:51;;;;;;;6.07;5.03;;;;;;;17.75;61.38;101981.13;6242304;28;20232;-53
2021/06/24 03:46:13;;;;;;;5.00;4.47;;;;;;;17.69;61.62;101987.38;6237521;28;20236;-52
2021/06/24 03:49:35;;;;;;;7.50;4.67;;;;;;;17.62;61.96;102000.72;6219289;28;20239;-57
2021/06/24 03:52:56;;;;;;;10.25;4.97;;;;;;;17.90;60.85;101996.66;6234584;28;20811;-51
2021/06/24 03:56:18;;;;;;;6.27;4.40;;;;;;;17.79;61.28;102003.88;6234353;28;20237;-53
2021/06/24 03:59:43;;;;;;;6.40;4.83;;;;;;;17.90;61.12;101995.78;6227484;28;20244;-54
2021/06/24 04:03:05;;;;;;;7.77;4.87;;;;;;;17.88;61.08;102008.13;6234829;28;20649;-52
2021/06/24 04:06:41;;;;;;;7.33;4.20;;;;;;;17.76;61.87;102016.25;6255979;28;20241;-53
2021/06/24 04:10:02;;;;;;;7.60;4.23;;;;;;;18.02;60.95;102010.47;6249237;28;20232;-53
2021/06/24 04:13:24;;;;;;;7.13;6.53;;;;;;;18.01;61.27;102000.81;6246320;28;21737;-53
2021/06/24 04:16:50;;;;;;;6.90;6.30;;;;;;;18.12;60.92;102000.59;6234959;28;20240;-54
2021/06/24 04:20:11;;;;;;;6.03;5.20;;;;;;;17.83;61.83;102007.31;6230737;28;20232;-53
2021/06/24 04:23:35;;;;;;;9.82;5.53;;;;;;;17.97;61.13;102015.84;6240609;28;20586;-52
2021/06/24 04:26:57;;;;;;;9.07;6.55;;;;;;;17.95;60.73;102004.50;6232688;28;20232;-53
2021/06/24 04:30:21;;;;;;;7.22;4.70;;;;;;;18.02;60.49;101997.31;6229726;28;20236;-54
2021/06/24 04:33:45;;;;;;;9.10;4.60;;;;;;;17.97;60.99;101996.53;6228938;28;20229;-51
2021/06/24 04:37:35;;;;;;;6.45;4.45;;;;;;;18.01;60.76;101995.56;6231154;28;20240;-54
2021/06/24 04:40:56;;;;;;;6.70;5.03;;;;;;;18.12;60.60;102000.59;6240557;28;20224;-52
2021/06/24 04:44:22;;;;;;;4.65;4.18;;;;;;;18.09;60.62;101996.28;6234945;28;20240;-54
2021/06/24 04:47:48;;;;;;;7.10;4.38;;;;;;;18.06;60.84;101996.34;6242559;28;20610;-53
2021/06/24 04:51:10;;;;;;;5.40;4.25;;;;;;;18.25;59.98;101996.81;6238304;28;20224;-53
2021/06/24 04:54:31;;;;;;;3.97;3.43;;;;;;;18.17;60.50;102001.38;6234307;28;20233;-48
2021/06/24 04:57:52;;;;;;;7.22;4.43;;;;;;;18.68;59.14;101996.66;6246054;28;20232;-54
2021/06/24 05:01:46;;;;;;;4.90;4.22;;;;;;;18.60;58.87;101987.19;6219442;28;20236;-51
2021/06/24 05:05:27;;;;;;;5.22;3.67;;;;;;;18.37;59.33;101987.75;6235250;28;20566;-55
2021/06/24 05:08:49;;;;;;;5.00;4.60;;;;;;;18.39;59.62;101993.84;6217527;28;20243;-52
2021/06/24 05:12:11;;;;;;;6.28;4.38;;;;;;;18.53;58.78;101981.19;6224547;28;20223;-51
2021/06/24 05:15:34;;;;;;;6.97;4.60;;;;;;;18.47;58.07;101983.97;6222184;28;20511;-49
2021/06/24 05:18:55;;;;;;;4.78;4.38;;;;;;;18.64;58.08;101981.81;6218608;28;20232;-52
2021/06/24 05:22:16;;;;;;;6.40;4.03;;;;;;;18.48;57.57;101988.38;6223534;28;20263;-52
2021/06/24 05:25:39;;;;;;;5.88;3.75;;;;;;;18.32;58.21;101981.69;6222711;28;20248;-53
2021/06/24 05:29:00;;;;;;;6.03;3.70;;;;;;;18.54;57.41;101987.34;6214962;28;20972;-53
2021/06/24 05:32:21;;;;;;;6.15;3.67;;;;;;;18.61;57.60;101975.72;6225181;28;20236;-59
2021/06/24 05:35:45;;;;;;;8.30;6.65;;;;;;;18.74;56.92;101973.66;6226017;28;20608;-56
2021/06/24 05:39:06;;;;;;;4.30;3.70;;;;;;;18.89;57.19;101970.69;6234600;28;20306;-57
2021/06/24 05:42:28;;;;;;;6.43;4.28;;;;;;;18.88;55.99;101974.22;6226085;28;20325;-53
2021/06/24 05:45:50;;;;;;;4.25;3.28;;;;;;;19.01;55.75;101967.72;6223465;28;20809;-56
2021/06/24 05:49:11;;;;;;;4.65;3.35;;;;;;;19.12;54.88;101969.22;6210007;28;20236;-60
2021/06/24 05:52:32;;;;;;;5.95;3.05;;;;;;;19.18;54.45;101962.00;6218502;28;20236;-59
2021/06/24 05:55:53;;;;;;;3.97;2.47;;;;;;;19.42;53.81;101963.09;6209817;28;20524;-59
2021/06/24 05:59:16;;;;;;;4.00;3.00;;;;;;;19.61;53.38;101955.50;6219373;28;20270;-58
2021/06/24 06:02:38;;;;;;;7.65;4.22;;;;;;;19.82;52.71;101955.84;6222159;28;20224;-59
2021/06/24 06:05:59;;;;;;;4.28;2.55;;;;;;;19.83;52.81;101953.16;6221864;28;20232;-58
2021/06/24 06:09:19;;;;;;;4.82;2.75;;;;;;;20.08;51.75;101948.88;6223168;28;20236;-59
2021/06/24 06:12:41;;;;;;;4.97;3.13;;;;;;;20.00;51.07;101949.13;6213963;28;20220;-64
2021/06/24 06:16:03;;;;;;;4.65;2.58;;;;;;;20.09;51.09;101950.63;6216137;28;20220;-63
2021/06/24 06:19:25;;;;;;;5.40;2.63;;;;;;;20.40;51.25;101953.16;6221627;28;20228;-62
2021/06/24 06:22:46;;;;;;;5.40;2.38;;;;;;;20.60;50.94;101950.75;6219479;28;20224;-61
2021/06/24 06:26:07;;;;;;;3.70;2.13;;;;;;;20.61;50.36;101954.28;6228289;28;20259;-61
2021/06/24 06:29:28;;;;;;;4.75;2.47;;;;;;;20.42;51.04;101961.91;6221830;28;20836;-62
2021/06/24 06:32:51;;;;;;;5.90;2.90;;;;;;;20.52;51.15;101960.69;6226130;28;20239;-62
2021/06/24 06:36:12;;;;;;;7.07;3.35;;;;;;;20.52;50.78;101955.41;6227333;28;20633;-62
2021/06/24 06:39:32;;;;;;;7.05;3.65;;;;;;;20.51;51.09;101951.03;6216667;28;20268;-63
2021/06/24 06:42:53;;;;;;;5.90;3.42;;;;;;;20.39;51.60;101959.34;6214515;28;20232;-61
2021/06/24 06:46:15;;;;;;;10.70;3.63;;;;;;;20.56;50.47;101958.81;6240140;28;20511;-62
2021/06/24 06:49:37;;;;;;;5.05;2.20;;;;;;;20.70;50.52;101956.59;6227133;28;20232;-62
2021/06/24 06:52:58;;;;;;;3.63;2.55;;;;;;;20.72;49.71;101953.91;6228356;28;20228;-62
2021/06/24 06:56:19;;;;;;;7.05;2.35;;;;;;;20.45;50.38;101953.88;6228741;28;20497;-55
2021/06/24 06:59:41;;;;;;;5.00;2.10;;;;;;;20.41;49.93;101950.47;6229244;28;20236;-54
2021/06/24 07:03:03;;;;;;;4.03;2.40;;;;;;;20.08;50.79;101952.38;6228928;28;20323;-55
2021/06/24 07:06:28;;;;;;;4.95;2.55;;;;;;;19.98;51.56;101961.53;6227560;28;20244;-55
2021/06/24 07:09:49;;;;;;;3.08;2.58;;;;;;;20.48;50.59;101959.06;6222699;28;20240;-54
2021/06/24 07:13:11;;;;;;;5.25;2.70;;;;;;;20.49;50.19;101955.53;6224360;28;20241;-53
2021/06/24 07:16:32;;;;;;;3.67;2.33;;;;;;;20.68;49.51;101963.72;6224303;28;20766;-55
2021/06/24 07:19:54;;;;;;;7.10;2.95;;;;;;;21.08;48.65;101958.88;6229044;28;20236;-53
2021/06/24 07:23:16;;;;;;;3.80;2.65;;;;;;;20.89;48.66;101954.19;6232528;28;20646;-56
2021/06/24 07:26:40;;;;;;;3.65;1.98;;;;;;;20.83;48.98;101957.06;6235299;28;20224;-55
2021/06/24 07:30:01;;;;;;;3.00;2.47;;;;;;;21.04;48.31;101958.97;6233643;28;20236;-52
2021/06/24 07:33:22;;;;;;;2.67;2.10;;;;;;;21.62;47.71;101952.53;6231508;28;20231;-57
2021/06/24 07:36:45;;;;;;;2.20;1.98;;;;;;;21.72;46.89;101956.56;6226480;28;20672;-53
2021/06/24 07:40:09;;;;;;;3.22;2.45;;;;;;;21.51;45.56;101949.41;6220890;28;20334;-55
2021/06/24 07:43:30;;;;;;;2.65;2.20;;;;;;;20.91;45.53;101947.06;6232007;28;20386;-53
2021/06/24 07:46:52;;;;;;;2.13;1.92;;;;;;;20.63;47.19;101950.66;6223444;28;20232;-55
2021/06/24 07:50:50;;;;;;;2.83;2.08;;;;;;;20.95;46.50;101946.03;6231179;28;20533;-52
2021/06/24 07:54:30;;;;;;;4.30;2.42;;;;;;;21.69;45.37;101940.75;6231206;28;20237;-48
2021/06/24 07:57:53;;;;;;;3.83;2.78;;;;;;;21.92;44.12;101925.75;6228896;28;20229;-53
2021/06/24 08:01:14;;;;;;;2.60;2.20;;;;;;;22.30;42.87;101931.38;6223468;28;20232;-54
2021/06/24 08:04:35;;;;;;;2.28;2.03;;;;;;;22.38;42.68;101926.59;6236684;28;20228;-56
2021/06/24 08:07:57;;;;;;;2.67;2.42;;;;;;;22.18;42.15;101922.09;6233207;28;20288;-56
2021/06/24 08:11:18;;;;;;;4.10;2.30;;;;;;;21.36;44.13;101919.84;6229034;28;20689;-51
2021/06/24 08:14:41;;;;;;;4.28;2.95;;;;;;;22.15;43.43;101920.41;6232622;28;20233;-54
2021/06/24 08:18:02;;;;;;;4.57;2.83;;;;;;;21.60;43.36;101918.13;6223734;28;20796;-56
2021/06/24 08:21:22;;;;;;;3.67;1.90;;;;;;;21.75;43.38;101921.09;6230542;28;20227;-52
2021/06/24 08:24:44;;;;;;;3.65;2.17;;;;;;;21.30;44.20;101925.38;6227435;28;20517;-53
2021/06/24 08:28:06;;;;;;;2.50;1.75;;;;;;;21.49;43.68;101920.31;6227667;28;20233;-50
2021/06/24 08:31:29;;;;;;;2.30;2.05;;;;;;;21.90;42.81;101914.34;6235568;28;20232;-52
2021/06/24 08:34:50;;;;;;;2.55;2.00;;;;;;;22.94;42.26;101904.75;6218677;28;20244;-51
2021/06/24 08:38:11;;;;;;;2.28;2.05;;;;;;;23.31;41.74;101910.25;6234121;28;20319;-56
2021/06/24 08:41:32;;;;;;;4.32;3.08;;;;;;;23.40;40.53;101899.19;6227816;28;20310;-53
2021/06/24 08:44:53;;;;;;;3.05;2.50;;;;;;;23.11;40.22;101892.50;6226987;28;20236;-53
2021/06/24 08:48:17;;;;;;;4.32;2.50;;;;;;;22.83;40.64;101890.19;6230271;28;20261;-51
2021/06/24 08:51:37;;;;;;;4.07;3.08;;;;;;;22.76;40.44;101897.56;6224307;28;20228;-51
2021/06/24 08:54:58;;;;;;;3.45;3.08;;;;;;;22.39;40.66;101896.47;6227101;28;20228;-54
2021/06/24 08:58:20;;;;;;;6.13;3.13;;;;;;;21.46;42.04;101896.59;6233916;28;20252;-54
2021/06/24 09:01:52;;;;;;;7.90;4.45;;;;;;;21.24;44.42;101893.81;6224584;28;20556;-57
2021/06/24 09:05:15;;;;;;;5.07;4.00;;;;;;;22.65;42.51;101897.19;6227222;28;20231;-55
2021/06/24 09:08:39;;;;;;;5.53;4.95;;;;;;;20.95;45.91;101892.22;6225587;28;20229;-54
2021/06/24 09:12:04;;;;;;;5.53;4.70;;;;;;;20.69;46.06;101901.94;6227828;28;20225;-55
2021/06/24 09:15:25;;;;;;;9.40;4.05;;;;;;;21.71;43.99;101895.63;6224842;28;20232;-53
2021/06/24 09:18:47;;;;;;;5.93;3.63;;;;;;;22.02;43.80;101889.97;6226480;28;20245;-53
2021/06/24 09:22:11;;;;;;;4.40;3.67;;;;;;;22.56;42.20;101888.66;6229365;28;20231;-54
2021/06/24 09:25:32;;;;;;;6.35;4.72;;;;;;;19.97;46.48;101899.00;6225293;28;20240;-54
2021/06/24 09:28:54;;;;;;;8.45;4.28;;;;;;;21.38;43.83;101898.59;6228956;28;20236;-55
2021/06/24 09:32:30;;;;;;;6.43;5.18;;;;;;;20.94;44.95;101898.47;6236304;28;20227;-52
2021/06/24 09:35:54;;;;;;;7.03;3.85;;;;;;;21.47;44.60;101889.50;6238644;28;20240;-55
2021/06/24 09:39:37;;;;;;;5.70;4.38;;;;;;;21.53;44.55;101897.22;6229025;28;20228;-53
2021/06/24 09:42:58;;;;;;;4.05;3.75;;;;;;;21.52;44.64;101892.81;6223064;28;20661;-54
2021/06/24 09:46:19;;;;;;;9.73;4.78;;;;;;;20.83;46.11;101899.69;6224409;28;20725;-52
2021/06/24 09:49:58;;;;;;;7.55;4.45;;;;;;;20.15;46.86;101895.75;6238327;28;20263;-54
2021/06/24 09:53:19;;;;;;;4.15;3.15;;;;;;;21.40;46.12;101884.41;6231510;28;20223;-57
2021/06/24 09:56:44;;;;;;;6.53;4.18;;;;;;;21.57;44.36;101889.06;6226001;28;20232;-54
2021/06/24 10:00:23;;;;;;;7.40;4.10;;;;;;;20.91;45.96;101890.63;6236581;28;20609;-54
2021/06/24 10:03:46;;;;;;;4.43;4.05;;;;;;;21.47;45.44;101890.34;6216334;28;20488;-53
2021/06/24 10:07:10;;;;;;;4.03;3.55;;;;;;;21.12;46.27;101894.28;6213365;28;20236;-51
2021/06/24 10:10:31;;;;;;;3.40;3.10;;;;;;;21.49;45.63;101893.81;6225873;28;20252;-53
2021/06/24 10:13:54;;;;;;;3.03;2.80;;;;;;;21.03;47.27;101885.75;6223166;28;20239;-54
2021/06/24 10:17:15;;;;;;;3.15;2.63;;;;;;;21.30;46.58;101885.66;6229239;28;20315;-55
2021/06/24 10:20:37;;;;;;;3.80;3.47;;;;;;;21.68;46.02;101886.03;6224209;28;20247;-54
2021/06/24 10:24:02;;;;;;;2.97;2.53;;;;;;;21.92;45.41;101889.47;6238184;28;20625;-55
2021/06/24 10:27:30;;;;;;;3.45;2.90;;;;;;;22.21;44.79;101880.34;6226096;28;20236;-56
2021/06/24 10:30:52;;;;;;;7.38;4.20;;;;;;;21.58;45.42;101880.22;6231599;28;20235;-56
2021/06/24 10:34:14;;;;;;;9.85;6.20;;;;;;;21.10;47.03;101882.88;6231329;28;20237;-53
2021/06/24 10:37:36;;;;;;;5.57;5.10;;;;;;;21.21;45.97;101878.06;6227877;28;20262;-54
2021/06/24 10:40:58;;;;;;;4.90;4.40;;;;;;;20.78;47.31;101869.00;6230356;28;20320;-54
2021/06/24 10:44:47;;;;;;;5.80;4.00;;;;;;;21.48;46.29;101875.31;6227084;28;20228;-49
2021/06/24 10:48:31;;;;;;;4.40;3.78;;;;;;;21.88;45.98;101873.78;6231357;28;20236;-51
2021/06/24 10:52:25;;;;;;;5.95;3.75;;;;;;;21.61;46.25;101866.81;6225645;28;20240;-56
2021/06/24 10:55:50;;;;;;;5.22;3.63;;;;;;;22.35;44.87;101869.22;6228154;28;20232;-53
2021/06/24 10:59:34;;;;;;;6.90;4.47;;;;;;;21.87;45.86;101872.91;6230054;28;20236;-49
2021/06/24 11:02:57;;;;;;;6.13;4.53;;;;;;;21.20;46.98;101868.38;6225774;28;20240;-53
2021/06/24 11:06:23;;;;;;;6.20;3.53;;;;;;;22.33;44.64;101854.28;6231351;28;20224;-54
2021/06/24 11:10:17;;;;;;;4.30;3.90;;;;;;;22.46;44.11;101858.13;6229470;28;20228;-50
2021/06/24 11:13:47;;;;;;;4.78;4.25;;;;;;;21.86;45.08;101865.00;6227872;28;20517;-52
2021/06/24 11:17:41;;;;;;;5.38;4.18;;;;;;;22.83;43.27;101859.19;6227019;28;20508;-55
2021/06/24 11:21:05;;;;;;;6.78;5.53;;;;;;;20.76;46.64;101860.25;6224219;28;20259;-56
2021/06/24 11:24:29;;;;;;;8.85;5.07;;;;;;;21.08;46.66;101850.31;6243536;28;20496;-54
2021/06/24 11:27:50;;;;;;;9.93;5.10;;;;;;;22.02;44.84;101855.50;6235790;28;20228;-52
2021/06/24 11:31:12;;;;;;;5.90;5.30;;;;;;;21.46;45.24;101855.97;6223743;28;20229;-52
2021/06/24 11:34:38;;;;;;;7.20;6.20;;;;;;;22.33;43.34;101852.50;6228091;28;20244;-52
2021/06/24 11:38:01;;;;;;;5.72;5.07;;;;;;;23.28;41.82;101851.91;6229481;28;20236;-54
2021/06/24 11:41:25;;;;;;;5.35;4.78;;;;;;;23.16;41.59;101850.69;6220470;28;20232;-54
2021/06/24 11:44:49;;;;;;;5.53;4.20;;;;;;;24.02;39.96;101843.09;6223930;28;20237;-55
2021/06/24 11:48:13;;;;;;;8.82;5.05;;;;;;;24.29;39.53;101839.06;6227694;28;20228;-54
2021/06/24 12:06:16;;;;;;;7.47;5.82;;;;;;;21.78;42.74;101834.34;6241488;28;20236;-54
2021/06/24 12:09:42;;;;;;;5.30;4.78;;;;;;;22.01;43.21;101835.22;6231809;28;20621;-52
2021/06/24 12:13:03;;;;;;;4.00;3.60;;;;;;;23.25;41.41;101831.66;6233078;28;20232;-54
2021/06/24 12:16:26;;;;;;;4.05;3.50;;;;;;;23.74;39.77;101831.13;6240796;28;20237;-54
2021/06/24 12:20:10;;;;;;;3.92;3.65;;;;;;;23.50;40.11;101833.19;6233579;28;20232;-49
2021/06/24 12:23:31;;;;;;;2.63;2.38;;;;;;;23.85;40.09;101831.50;6233239;28;20390;-54
2021/06/24 12:26:52;;;;;;;5.45;3.03;;;;;;;23.57;40.63;101824.84;6225906;28;20256;-53
2021/06/24 12:30:16;;;;;;;3.70;3.08;;;;;;;23.97;39.96;101830.03;6231853;28;20846;-54
2021/06/24 12:33:39;;;;;;;7.97;4.68;;;;;;;23.89;39.80;101830.41;6244609;28;20221;-49
2021/06/24 12:37:00;;;;;;;5.38;4.60;;;;;;;24.30;37.69;101830.13;6244513;28;20236;-54
2021/06/24 12:40:22;;;;;;;4.90;4.43;;;;;;;23.11;39.80;101819.03;6230207;28;20244;-56
2021/06/24 12:43:44;;;;;;;9.25;4.75;;;;;;;25.39;38.16;101812.00;6228970;28;20428;-55
2021/06/24 12:47:06;;;;;;;3.33;3.03;;;;;;;26.03;36.59;101819.03;6227181;28;20236;-55
2021/06/24 12:50:31;;;;;;;3.00;2.67;;;;;;;26.38;35.95;101818.75;6232523;28;20260;-52
2021/06/24 12:53:54;;;;;;;5.90;3.10;;;;;;;25.73;36.34;101813.63;6231052;28;20240;-57
2021/06/24 12:57:24;;;;;;;2.90;2.70;;;;;;;26.33;36.54;101810.16;6221554;28;20229;-51
2021/06/24 13:00:54;;;;;;;4.78;3.10;;;;;;;27.04;34.96;101805.84;6211769;28;20228;-56
2021/06/24 13:04:17;;;;;;;4.10;2.80;;;;;;;27.56;33.01;101804.34;6210756;28;20963;-52
2021/06/24 13:07:57;;;;;;;4.05;2.50;;;;;;;27.50;34.13;101792.22;6226445;28;20252;-53
2021/06/24 13:11:20;;;;;;;3.97;1.95;;;;;;;27.17;34.91;101788.06;6228121;28;20500;-57
2021/06/24 13:14:42;;;;;;;5.07;3.10;;;;;;;26.68;33.87;101785.81;6240622;28;20231;-54
2021/06/24 13:18:03;;;;;;;3.17;2.20;;;;;;;26.39;35.62;101784.91;6224118;28;20251;-52
2021/06/24 13:21:25;;;;;;;3.85;2.65;;;;;;;26.56;34.89;101791.88;6214912;28;20236;-56
2021/06/24 13:24:49;;;;;;;3.28;2.95;;;;;;;26.15;35.07;101793.41;6219417;28;20641;-51
2021/06/24 13:28:11;;;;;;;3.60;2.28;;;;;;;25.88;35.42;101791.41;6217027;28;20500;-52
2021/06/24 13:31:34;;;;;;;4.50;2.03;;;;;;;25.59;37.60;101795.75;6230739;28;20235;-61
2021/06/24 13:34:55;;;;;;;2.83;1.83;;;;;;;25.42;37.90;101798.53;6226800;28;20228;-62
2021/06/24 13:38:20;;;;;;;2.92;2.72;;;;;;;24.78;37.99;101790.41;6231729;28;20236;-63
2021/06/24 13:41:44;;;;;;;2.45;2.25;;;;;;;23.87;39.69;101788.88;6230984;28;20901;-62
2021/06/24 13:45:06;;;;;;;4.63;2.20;;;;;;;25.05;37.01;101793.41;6230883;28;20232;-60
2021/06/24 13:48:28;;;;;;;5.25;3.72;;;;;;;24.88;36.23;101796.97;6238132;28;20228;-62
2021/06/24 13:51:51;;;;;;;4.70;4.05;;;;;;;24.15;38.74;101799.81;6232872;28;20228;-62
2021/06/24 13:55:13;;;;;;;3.63;3.33;;;;;;;25.01;37.02;101796.28;6222619;28;20236;-61
2021/06/24 13:58:35;;;;;;;3.47;2.50;;;;;;;25.44;36.26;101800.16;6235319;28;20228;-63
2021/06/24 14:01:56;;;;;;;3.45;2.20;;;;;;;26.30;35.97;101794.31;6221516;28;20236;-61
2021/06/24 14:05:18;;;;;;;3.83;2.47;;;;;;;25.60;36.69;101784.13;6216682;28;20252;-62
2021/06/24 14:08:39;;;;;;;2.78;2.10;;;;;;;25.80;36.89;101782.97;6225531;28;20224;-61
2021/06/24 14:12:00;;;;;;;2.58;2.30;;;;;;;25.48;37.30;101776.84;6223250;28;20244;-62
2021/06/24 14:15:23;;;;;;;2.60;2.15;;;;;;;25.34;37.72;101781.16;6223765;28;20228;-61
2021/06/24 14:18:46;;;;;;;2.63;2.30;;;;;;;25.17;38.24;101769.69;6231642;28;20232;-63
2021/06/24 14:22:08;;;;;;;3.88;2.53;;;;;;;25.21;38.11;101774.75;6223377;28;20251;-62
2021/06/24 14:25:29;;;;;;;2.78;2.30;;;;;;;24.84;39.24;101782.09;6224908;28;20224;-63
2021/06/24 14:28:51;;;;;;;2.97;2.78;;;;;;;25.31;37.99;101785.78;6226639;28;20233;-61
2021/06/24 14:32:13;;;;;;;3.55;3.28;;;;;;;25.08;37.89;101779.03;6235206;28;20576;-61
2021/06/24 14:35:34;;;;;;;3.50;3.15;;;;;;;25.43;37.97;101784.22;6235381;28;20224;-61
2021/06/24 14:38:55;;;;;;;5.28;3.20;;;;;;;24.92;38.88;101792.34;6239936;28;20224;-64
2021/06/24 14:42:16;;;;;;;5.50;4.00;;;;;;;25.07;39.83;101793.31;6233674;28;20240;-63
2021/06/24 14:45:37;;;;;;;7.43;3.50;;;;;;;24.11;40.59;101794.75;6238008;28;20243;-63
2021/06/24 14:49:00;;;;;;;4.28;3.65;;;;;;;23.29;41.93;101796.03;6236755;28;20609;-63
2021/06/24 14:52:22;;;;;;;6.93;4.13;;;;;;;23.36;42.34;101801.91;6237065;28;20224;-63
2021/06/24 14:55:44;;;;;;;5.72;4.30;;;;;;;23.96;41.59;101788.41;6248454;28;20232;-64
2021/06/24 14:59:07;;;;;;;3.45;2.60;;;;;;;24.05;41.09;101795.91;6240113;28;20471;-63
2021/06/24 15:02:28;;;;;;;5.43;3.88;;;;;;;23.75;41.86;101791.16;6231750;28;20236;-63
2021/06/24 15:05:50;;;;;;;3.72;3.30;;;;;;;24.22;40.56;101794.22;6237166;28;20223;-64
2021/06/24 15:09:11;;;;;;;6.00;4.28;;;;;;;23.84;40.91;101794.34;6239509;28;20228;-63
2021/06/24 15:12:32;;;;;;;5.78;4.57;;;;;;;23.24;42.69;101794.53;6241158;28;20256;-63
2021/06/24 15:15:53;;;;;;;5.70;3.38;;;;;;;23.41;42.51;101791.09;6236557;28;20861;-63
2021/06/24 15:19:14;;;;;;;4.38;3.35;;;;;;;23.99;41.02;101793.56;6239058;28;20232;-64
2021/06/24 15:22:37;;;;;;;5.07;3.38;;;;;;;24.80;40.81;101796.53;6247897;28;20260;-64
2021/06/24 15:25:58;;;;;;;6.65;3.88;;;;;;;24.62;39.97;101786.84;6249509;28;20224;-67
2021/06/24 15:29:19;;;;;;;4.65;3.47;;;;;;;25.15;39.36;101781.28;6242244;28;20285;-63
2021/06/24 15:32:42;;;;;;;5.57;3.22;;;;;;;24.51;39.86;101782.94;6246476;28;20236;-63
2021/06/24 15:36:03;;;;;;;3.58;3.25;;;;;;;24.35;40.44;101779.34;6253149;28;20244;-64
2021/06/24 15:39:25;;;;;;;5.25;4.60;;;;;;;24.55;39.15;101776.50;6251387;28;20252;-64
2021/06/24 15:42:48;;;;;;;7.00;4.03;;;;;;;24.55;40.60;101781.84;6242033;28;20227;-64
2021/06/24 15:46:08;;;;;;;4.25;3.85;;;;;;;24.07;40.83;101764.78;6236971;28;20228;-64
2021/06/24 15:49:29;;;;;;;4.75;3.15;;;;;;;24.28;41.11;101761.97;6241715;28;20596;-64
2021/06/24 15:52:51;;;;;;;3.95;3.65;;;;;;;24.25;40.76;101762.09;6226869;28;20613;-64
2021/06/24 15:56:14;;;;;;;3.92;3.28;;;;;;;24.46;40.78;101766.31;6248395;28;20231;-65
2021/06/24 15:59:36;;;;;;;6.90;3.45;;;;;;;24.38;40.83;101763.19;6230783;28;20237;-65
2021/06/24 16:02:57;;;;;;;3.40;3.10;;;;;;;24.30;40.41;101760.94;6234441;28;20231;-65
2021/06/24 16:06:18;;;;;;;3.33;2.70;;;;;;;24.23;41.33;101766.66;6238840;28;20252;-71